createdAt,value
2019-01-18T00:03:04.587Z,99802.00
2019-01-18T00:08:05.852Z,99794.00
2019-01-18T00:13:07.088Z,99809.00
2019-01-18T00:18:08.345Z,99817.00
2019-01-18T00:23:09.596Z,99819.00
2019-01-18T00:28:10.950Z,99818.00
2019-01-18T00:33:12.209Z,99794.00
2019-01-18T00:38:13.489Z,99797.00
2019-01-18T00:43:14.736Z,99808.00
2019-01-18T00:48:15.999Z,99817.00
2019-01-18T00:53:17.236Z,99807.00
2019-01-18T00:58:18.487Z,99821.00
2019-01-18T01:03:19.732Z,99826.00
2019-01-18T01:08:22.882Z,99828.00
2019-01-18T01:13:24.167Z,99846.00
2019-01-18T01:18:25.506Z,99860.00
2019-01-18T01:23:26.764Z,99872.00
2019-01-18T01:28:28.005Z,99880.00
2019-01-18T01:33:29.359Z,99880.00
2019-01-18T01:38:30.716Z,99894.00
2019-01-18T01:43:31.971Z,99903.00
2019-01-18T01:48:33.222Z,99908.00
2019-01-18T01:53:34.475Z,99917.00
2019-01-18T01:58:35.735Z,99930.00
2019-01-18T02:03:37.021Z,99934.00
2019-01-18T02:08:38.277Z,99943.00
2019-01-18T02:13:39.532Z,99947.00
2019-01-18T02:18:40.796Z,99939.00
2019-01-18T02:23:42.030Z,99941.00
2019-01-18T02:28:43.280Z,99950.00
2019-01-18T02:33:44.541Z,99952.00
2019-01-18T02:38:45.800Z,99959.00
2019-01-18T02:43:47.046Z,99966.00
2019-01-18T02:48:48.298Z,99958.00
2019-01-18T02:53:49.548Z,99953.00
2019-01-18T02:58:50.801Z,99969.00
2019-01-18T03:03:52.052Z,99972.00
2019-01-18T03:08:53.302Z,99978.00
2019-01-18T03:13:54.522Z,100000.00
2019-01-18T03:18:55.772Z,99999.00
2019-01-18T03:23:57.010Z,100008.00
2019-01-18T03:28:58.254Z,100010.00
2019-01-18T03:33:59.500Z,100016.00
2019-01-18T03:39:00.766Z,100017.00
2019-01-18T03:44:02.217Z,100035.00
2019-01-18T03:49:05.968Z,100053.00
2019-01-18T03:54:07.212Z,100060.00
2019-01-18T03:59:08.448Z,100086.00
2019-01-18T04:04:09.689Z,100087.00
2019-01-18T04:09:10.940Z,100106.00
2019-01-18T04:14:12.174Z,100107.00
2019-01-18T04:19:13.419Z,100118.00
2019-01-18T04:24:14.682Z,100129.00
2019-01-18T04:29:15.922Z,100121.00
2019-01-18T04:34:17.180Z,100120.00
2019-01-18T04:39:18.446Z,100127.00
2019-01-18T04:44:19.671Z,100130.00
2019-01-18T04:49:20.897Z,100140.00
2019-01-18T04:54:22.135Z,100152.00
2019-01-18T04:59:23.380Z,100166.00
2019-01-18T05:04:25.020Z,100157.00
2019-01-18T05:09:26.263Z,100173.00
2019-01-18T05:14:27.492Z,100177.00
2019-01-18T05:19:28.839Z,100185.00
2019-01-18T05:24:30.082Z,100187.00
2019-01-18T05:29:31.329Z,100207.00
2019-01-18T05:34:32.588Z,100203.00
2019-01-18T05:39:33.849Z,100212.00
2019-01-18T05:44:35.094Z,100202.00
2019-01-18T05:49:36.338Z,100217.00
2019-01-18T05:54:37.586Z,100226.00
2019-01-18T05:59:38.854Z,100236.00
2019-01-18T06:04:41.493Z,100227.00
2019-01-18T06:09:43.347Z,100233.00
2019-01-18T06:14:44.607Z,100255.00
2019-01-18T06:19:45.841Z,100255.00
2019-01-18T06:24:47.080Z,100257.00
2019-01-18T06:29:48.348Z,100265.00
2019-01-18T06:34:49.582Z,100262.00
2019-01-18T06:39:50.836Z,100269.00
2019-01-18T06:44:52.075Z,100267.00
2019-01-18T06:49:53.322Z,100267.00
2019-01-18T06:54:54.682Z,100276.00
2019-01-18T06:59:55.937Z,100284.00
2019-01-18T07:04:57.184Z,100296.00
2019-01-18T07:09:58.423Z,100301.00
2019-01-18T07:14:59.694Z,100317.00
2019-01-18T07:20:01.020Z,100326.00
2019-01-18T07:25:07.280Z,100334.00
2019-01-18T07:30:17.312Z,100351.00
2019-01-18T07:35:18.550Z,100372.00
2019-01-18T07:40:19.896Z,100370.00
2019-01-18T07:45:27.973Z,100385.00
2019-01-18T07:50:29.221Z,100389.00
2019-01-18T07:55:30.461Z,100396.00
2019-01-18T08:00:31.901Z,100401.00
2019-01-18T08:05:33.253Z,100401.00
2019-01-18T08:10:34.500Z,100413.00
2019-01-18T08:15:35.854Z,100413.00
2019-01-18T08:20:37.092Z,100420.00
2019-01-18T08:25:38.339Z,100434.00
2019-01-18T08:30:39.601Z,100419.00
2019-01-18T08:35:41.187Z,100426.00
2019-01-18T08:40:42.427Z,100431.00
2019-01-18T08:45:47.078Z,100444.00
2019-01-18T08:50:48.309Z,100447.00
2019-01-18T08:55:49.779Z,100447.00
2019-01-18T09:00:51.018Z,100444.00
2019-01-18T09:05:52.285Z,100463.00
2019-01-18T09:10:53.750Z,100468.00
2019-01-18T09:15:55.009Z,100473.00
2019-01-18T09:20:56.252Z,100476.00
2019-01-18T09:25:57.495Z,100478.00
2019-01-18T09:30:58.858Z,100489.00
2019-01-18T09:36:00.172Z,100503.00
2019-01-18T09:41:01.429Z,100508.00
2019-01-18T09:46:02.900Z,100517.00
2019-01-18T09:51:04.149Z,100531.00
2019-01-18T09:56:05.582Z,100528.00
2019-01-18T10:01:06.934Z,100518.00
2019-01-18T10:06:08.173Z,100531.00
2019-01-18T10:11:09.428Z,100525.00
2019-01-18T10:16:10.722Z,100524.00
2019-01-18T10:21:11.998Z,100536.00
2019-01-18T10:26:13.238Z,100537.00
2019-01-18T10:31:14.493Z,100533.00
2019-01-18T10:36:15.928Z,100540.00
2019-01-18T10:41:17.182Z,100531.00
2019-01-18T10:46:18.421Z,100533.00
2019-01-18T10:51:19.699Z,100542.00
2019-01-18T10:56:20.947Z,100534.00
2019-01-18T11:01:22.209Z,100532.00
2019-01-18T11:06:23.453Z,100547.00
2019-01-18T11:11:24.689Z,100551.00
2019-01-18T11:16:26.107Z,100552.00
2019-01-18T11:21:27.396Z,100565.00
2019-01-18T11:26:28.843Z,100562.00
2019-01-18T11:31:31.514Z,100553.00
2019-01-18T11:36:32.942Z,100550.00
2019-01-18T11:41:34.289Z,100552.00
2019-01-18T11:46:35.525Z,100538.00
2019-01-18T11:51:36.779Z,100540.00
2019-01-18T11:56:38.047Z,100533.00
2019-01-18T12:01:39.407Z,100524.00
2019-01-18T12:06:40.668Z,100524.00
2019-01-18T12:11:41.970Z,100523.00
2019-01-18T12:16:43.232Z,100512.00
2019-01-18T12:21:44.486Z,100503.00
2019-01-18T12:26:45.733Z,100504.00
2019-01-18T12:31:47.173Z,100500.00
2019-01-18T12:36:48.603Z,100502.00
2019-01-18T12:41:49.900Z,100494.00
2019-01-18T12:46:51.163Z,100496.00
2019-01-18T12:51:52.412Z,100481.00
2019-01-18T12:56:53.677Z,100491.00
2019-01-18T13:02:01.751Z,100490.00
2019-01-18T13:07:03.181Z,100486.00
2019-01-18T13:12:04.446Z,100477.00
2019-01-18T13:17:05.700Z,100470.00
2019-01-18T13:22:07.060Z,100475.00
2019-01-18T13:27:08.414Z,100469.00
2019-01-18T13:32:09.687Z,100479.00
2019-01-18T13:37:11.041Z,100476.00
2019-01-18T13:42:12.509Z,100483.00
2019-01-18T13:47:18.240Z,100486.00
2019-01-18T13:52:17.052Z,100482.00
2019-01-18T13:57:18.399Z,100479.00
2019-01-18T14:02:19.773Z,100481.00
2019-01-18T14:07:21.076Z,100487.00
2019-01-18T14:12:22.326Z,100490.00
2019-01-18T14:17:23.582Z,100499.00
2019-01-18T14:22:24.841Z,100499.00
2019-01-18T14:27:26.114Z,100496.00
2019-01-18T14:32:27.343Z,100501.00
2019-01-18T14:37:28.711Z,100507.00
2019-01-18T14:42:29.977Z,100497.00
2019-01-18T14:47:31.248Z,100498.00
2019-01-18T14:52:32.599Z,100514.00
2019-01-18T14:57:34.076Z,100510.00
2019-01-18T15:02:35.428Z,100502.00
2019-01-18T15:07:36.710Z,100509.00
2019-01-18T15:12:38.271Z,100513.00
2019-01-18T15:17:40.773Z,100521.00
2019-01-18T15:22:42.353Z,100511.00
2019-01-18T15:27:43.917Z,100521.00
2019-01-18T15:32:45.462Z,100518.00
2019-01-18T15:37:46.941Z,100505.00
2019-01-18T15:42:48.448Z,100507.00
2019-01-18T15:47:49.803Z,100511.00
2019-01-18T15:52:51.298Z,100503.00
2019-01-18T15:57:52.666Z,100508.00
2019-01-18T16:02:54.525Z,100513.00
2019-01-18T16:07:56.115Z,100509.00
2019-01-18T16:12:57.364Z,100501.00
2019-01-18T16:17:59.323Z,100504.00
2019-01-18T16:23:00.695Z,100506.00
2019-01-18T16:28:02.791Z,100503.00
2019-01-18T16:33:04.279Z,100496.00
2019-01-18T16:38:10.067Z,100504.00
2019-01-18T16:43:19.505Z,100498.00
2019-01-18T16:48:20.771Z,100495.00
2019-01-18T16:53:22.133Z,100498.00
2019-01-18T16:58:23.396Z,100493.00
2019-01-18T17:03:30.390Z,100494.00
2019-01-18T17:08:27.838Z,100482.00
2019-01-18T17:13:29.292Z,100486.00
2019-01-18T17:18:30.932Z,100489.00
2019-01-18T17:23:32.337Z,100490.00
2019-01-18T17:28:33.684Z,100494.00
2019-01-18T17:33:37.021Z,100489.00
2019-01-18T17:39:03.890Z,100485.00
2019-01-18T17:44:23.161Z,100491.00
2019-01-18T17:49:50.881Z,100494.00
2019-01-18T17:54:57.845Z,100493.00
2019-01-18T18:00:28.873Z,100496.00
2019-01-18T18:06:11.762Z,100489.00
2019-01-18T18:11:30.753Z,100489.00
2019-01-18T18:17:13.796Z,100495.00
2019-01-18T18:23:04.933Z,100485.00
2019-01-18T18:28:43.957Z,100495.00
2019-01-18T18:33:59.811Z,100489.00
2019-01-18T18:39:24.949Z,100495.00
2019-01-18T18:45:06.745Z,100485.00
2019-01-18T18:50:46.828Z,100477.00
2019-01-18T18:56:02.261Z,100484.00
2019-01-18T19:01:30.566Z,100479.00
2019-01-18T19:07:19.896Z,100473.00
2019-01-18T19:12:26.916Z,100485.00
2019-01-18T19:17:59.586Z,100476.00
2019-01-18T19:23:18.367Z,100464.00
2019-01-18T19:28:36.869Z,100463.00
2019-01-18T19:33:55.619Z,100464.00
2019-01-18T19:39:24.154Z,100466.00
2019-01-18T19:44:46.241Z,100460.00
2019-01-18T19:50:17.228Z,100454.00
2019-01-18T19:55:39.004Z,100456.00
2019-01-18T20:01:07.684Z,100454.00
2019-01-18T20:06:44.995Z,100462.00
2019-01-18T20:12:08.662Z,100468.00
2019-01-18T20:17:33.930Z,100475.00
2019-01-18T20:23:00.788Z,100470.00
2019-01-18T20:28:28.462Z,100466.00
2019-01-18T20:33:50.539Z,100457.00
2019-01-18T20:39:27.444Z,100456.00
2019-01-18T20:44:51.442Z,100462.00
2019-01-18T20:50:01.695Z,100454.00
2019-01-18T20:55:17.476Z,100456.00
2019-01-18T21:00:50.212Z,100458.00
2019-01-18T21:06:18.180Z,100457.00
2019-01-18T21:11:37.026Z,100463.00
2019-01-18T21:16:52.967Z,100462.00
2019-01-18T21:22:43.962Z,100453.00
2019-01-18T21:27:53.957Z,100452.00
2019-01-18T21:33:09.532Z,100452.00
2019-01-18T21:38:42.882Z,100438.00
2019-01-18T21:44:06.440Z,100442.00
2019-01-18T21:49:22.697Z,100449.00
2019-01-18T21:54:47.284Z,100442.00
2019-01-18T22:00:12.343Z,100439.00
2019-01-18T22:05:57.366Z,100447.00
2019-01-18T22:11:24.241Z,100448.00
2019-01-18T22:16:47.960Z,100446.00
2019-01-18T22:22:12.702Z,100444.00
2019-01-18T22:27:37.551Z,100442.00
2019-01-18T22:33:11.169Z,100446.00
2019-01-18T22:38:32.868Z,100448.00
2019-01-18T22:44:04.435Z,100448.00
2019-01-18T22:49:23.006Z,100442.00
2019-01-18T22:54:56.914Z,100453.00
2019-01-18T23:00:32.903Z,100442.00
2019-01-18T23:06:04.408Z,100448.00
2019-01-18T23:11:22.933Z,100448.00
2019-01-18T23:16:55.299Z,100446.00
2019-01-18T23:22:05.043Z,100439.00
2019-01-18T23:27:37.911Z,100450.00
2019-01-18T23:33:03.518Z,100444.00
2019-01-18T23:38:22.016Z,100446.00
2019-01-18T23:43:49.780Z,100434.00
2019-01-18T23:49:06.288Z,100430.00
2019-01-18T23:54:22.149Z,100434.00
2019-01-18T23:59:31.795Z,100436.00
